createdAt,value
2023-02-09T00:01:30.881Z,21.02
2023-02-09T00:04:02.475Z,17.75
2023-02-09T00:06:31.334Z,21.75
2023-02-09T00:09:00.138Z,20.95
2023-02-09T00:11:44.508Z,16.33
2023-02-09T00:14:15.765Z,19.40
2023-02-09T00:16:44.095Z,20.77
2023-02-09T00:19:13.057Z,19.02
2023-02-09T00:21:42.258Z,20.33
2023-02-09T00:24:11.399Z,19.55
2023-02-09T00:26:40.087Z,17.48
2023-02-09T00:29:09.000Z,18.52
2023-02-09T00:31:38.939Z,18.52
2023-02-09T00:34:07.842Z,19.42
2023-02-09T00:36:36.015Z,18.88
2023-02-09T00:39:04.169Z,17.85
2023-02-09T00:41:58.257Z,25.25
2023-02-09T00:44:26.331Z,19.75
2023-02-09T00:46:56.031Z,18.42
2023-02-09T00:49:24.302Z,20.48
2023-02-09T00:51:52.429Z,18.00
2023-02-09T00:54:20.788Z,21.75
2023-02-09T00:56:49.369Z,24.77
2023-02-09T00:59:17.896Z,18.65
2023-02-09T01:01:46.061Z,20.30
2023-02-09T01:04:16.926Z,18.40
2023-02-09T01:06:45.067Z,18.85
2023-02-09T01:09:13.131Z,19.50
2023-02-09T01:11:41.176Z,19.75
2023-02-09T01:14:09.731Z,22.05
2023-02-09T01:16:37.862Z,23.33
2023-02-09T01:19:05.976Z,22.30
2023-02-09T01:21:35.421Z,19.45
2023-02-09T01:24:03.647Z,18.83
2023-02-09T01:26:31.699Z,19.42
2023-02-09T01:28:59.808Z,19.65
2023-02-09T01:31:30.220Z,19.13
2023-02-09T01:34:00.383Z,21.20
2023-02-09T01:36:30.097Z,20.13
2023-02-09T01:39:02.329Z,20.17
2023-02-09T01:41:31.214Z,21.65
2023-02-09T01:44:01.651Z,23.35
2023-02-09T01:46:32.309Z,19.58
2023-02-09T01:49:06.848Z,19.33
2023-02-09T01:51:39.177Z,19.65
2023-02-09T01:54:13.780Z,27.48
2023-02-09T01:56:46.089Z,21.67
2023-02-09T01:59:17.012Z,21.50
2023-02-09T02:01:45.690Z,23.77
2023-02-09T02:04:14.751Z,20.27
2023-02-09T02:06:42.980Z,23.80
2023-02-09T02:09:14.801Z,23.25
2023-02-09T02:11:48.817Z,21.23
2023-02-09T02:14:30.533Z,22.55
2023-02-09T02:17:07.290Z,22.92
2023-02-09T02:20:01.826Z,22.75
2023-02-09T02:22:58.636Z,21.30
2023-02-09T02:26:07.891Z,21.17
2023-02-09T02:29:17.239Z,21.23
2023-02-09T02:32:10.912Z,22.67
2023-02-09T02:34:45.184Z,19.60
2023-02-09T02:37:27.654Z,22.52
2023-02-09T02:40:04.202Z,23.58
2023-02-09T02:42:51.540Z,19.70
2023-02-09T02:45:30.930Z,22.83
2023-02-09T02:48:06.435Z,21.65
2023-02-09T02:53:07.467Z,23.75
2023-02-09T02:55:38.792Z,21.83
2023-02-09T02:58:10.497Z,24.60
2023-02-09T03:00:43.884Z,21.48
2023-02-09T03:03:17.774Z,26.92
2023-02-09T03:05:46.255Z,23.58
2023-02-09T03:08:14.340Z,25.73
2023-02-09T03:10:43.537Z,24.63
2023-02-09T03:13:38.423Z,22.25
2023-02-09T03:19:39.749Z,24.05
2023-02-09T03:22:12.761Z,20.20
2023-02-09T03:24:47.520Z,24.38
2023-02-09T03:27:19.592Z,24.92
2023-02-09T03:29:50.794Z,27.95
2023-02-09T03:32:21.017Z,23.80
2023-02-09T03:34:52.627Z,23.95
2023-02-09T03:37:20.696Z,27.08
2023-02-09T03:39:48.667Z,25.85
2023-02-09T03:42:16.726Z,22.75
2023-02-09T03:44:44.722Z,27.35
2023-02-09T03:47:12.867Z,23.10
2023-02-09T03:49:42.500Z,27.10
2023-02-09T03:52:13.643Z,25.48
2023-02-09T03:54:42.104Z,26.10
2023-02-09T03:57:11.136Z,27.02
2023-02-09T03:59:39.704Z,24.20
2023-02-09T04:02:09.494Z,23.65
2023-02-09T04:04:38.022Z,24.00
2023-02-09T04:07:06.221Z,22.17
2023-02-09T04:09:37.567Z,24.33
2023-02-09T04:12:05.990Z,27.65
2023-02-09T04:14:34.016Z,23.98
2023-02-09T04:17:02.000Z,27.48
2023-02-09T04:19:30.071Z,29.95
2023-02-09T04:21:58.175Z,23.23
2023-02-09T04:24:28.971Z,24.83
2023-02-09T04:26:58.364Z,24.92
2023-02-09T04:29:26.697Z,27.25
2023-02-09T04:31:54.776Z,23.90
2023-02-09T04:34:24.613Z,23.80
2023-02-09T04:36:52.780Z,31.48
2023-02-09T04:39:26.201Z,24.15
2023-02-09T04:41:54.239Z,27.15
2023-02-09T04:44:23.562Z,26.70
2023-02-09T04:46:51.666Z,26.02
2023-02-09T04:49:19.697Z,25.95
2023-02-09T04:51:47.781Z,26.90
2023-02-09T04:54:15.837Z,23.88
2023-02-09T04:56:43.874Z,27.80
2023-02-09T04:59:29.585Z,27.80
2023-02-09T05:01:58.990Z,23.23
2023-02-09T05:04:27.004Z,27.02
2023-02-09T05:06:54.989Z,26.88
2023-02-09T05:09:22.996Z,26.35
2023-02-09T05:11:51.013Z,25.08
2023-02-09T05:14:19.058Z,26.98
2023-02-09T05:16:47.161Z,27.50
2023-02-09T05:19:16.599Z,26.92
2023-02-09T05:21:44.660Z,26.25
2023-02-09T05:24:12.691Z,24.52
2023-02-09T05:26:40.727Z,27.40
2023-02-09T05:29:08.781Z,28.45
2023-02-09T05:31:36.902Z,29.70
2023-02-09T05:34:05.119Z,27.83
2023-02-09T05:36:41.844Z,31.40
2023-02-09T05:39:09.938Z,30.88
2023-02-09T05:42:00.895Z,26.38
2023-02-09T05:44:28.916Z,29.85
2023-02-09T05:46:57.791Z,26.77
2023-02-09T05:49:25.905Z,28.90
2023-02-09T05:51:55.303Z,28.80
2023-02-09T05:54:23.435Z,31.50
2023-02-09T05:56:51.613Z,29.00
2023-02-09T05:59:20.485Z,27.75
2023-02-09T06:01:48.609Z,25.92
2023-02-09T06:04:17.096Z,27.25
2023-02-09T06:06:45.216Z,27.48
2023-02-09T06:09:14.795Z,31.98
2023-02-09T06:11:42.902Z,31.25
2023-02-09T06:14:11.762Z,27.00
2023-02-09T06:16:40.750Z,29.33
2023-02-09T06:19:09.726Z,26.30
2023-02-09T06:21:37.866Z,26.90
2023-02-09T06:24:06.242Z,30.60
2023-02-09T06:26:35.689Z,28.52
2023-02-09T06:29:03.794Z,27.00
2023-02-09T06:31:31.853Z,27.67
2023-02-09T06:34:00.192Z,27.90
2023-02-09T06:36:28.347Z,31.70
2023-02-09T06:38:56.468Z,29.60
2023-02-09T06:41:24.538Z,25.38
2023-02-09T06:43:54.119Z,26.95
2023-02-09T06:46:22.238Z,28.90
2023-02-09T06:48:50.762Z,28.08
2023-02-09T06:51:19.002Z,27.40
2023-02-09T06:53:47.391Z,29.00
2023-02-09T06:56:15.716Z,30.85
2023-02-09T06:58:43.993Z,34.67
2023-02-09T07:01:15.636Z,28.95
2023-02-09T07:03:44.682Z,31.85
2023-02-09T07:06:15.065Z,27.38
2023-02-09T07:08:43.590Z,28.65
2023-02-09T07:11:14.173Z,33.58
2023-02-09T07:13:42.558Z,34.10
2023-02-09T07:16:13.415Z,28.58
2023-02-09T07:18:42.194Z,30.20
2023-02-09T07:21:15.565Z,27.55
2023-02-09T07:23:43.707Z,29.08
2023-02-09T07:26:15.241Z,37.65
2023-02-09T07:28:43.797Z,28.92
2023-02-09T07:31:15.023Z,27.45
2023-02-09T07:33:43.183Z,33.70
2023-02-09T07:36:13.008Z,35.45
2023-02-09T07:38:43.431Z,26.23
2023-02-09T07:41:16.966Z,29.83
2023-02-09T07:43:45.524Z,30.60
2023-02-09T07:46:16.837Z,27.63
2023-02-09T07:48:45.057Z,29.35
2023-02-09T07:51:15.219Z,33.50
2023-02-09T07:53:43.745Z,30.13
2023-02-09T07:56:11.918Z,34.95
2023-02-09T07:58:40.193Z,29.90
2023-02-09T08:01:10.874Z,31.30
2023-02-09T08:03:42.298Z,28.88
2023-02-09T08:06:19.709Z,29.58
2023-02-09T08:08:48.997Z,37.38
2023-02-09T08:11:20.752Z,29.85
2023-02-09T08:13:50.806Z,28.35
2023-02-09T08:16:23.372Z,31.73
2023-02-09T08:18:56.668Z,32.97
2023-02-09T08:21:25.470Z,32.05
2023-02-09T08:23:58.017Z,33.90
2023-02-09T08:26:26.219Z,32.92
2023-02-09T08:28:54.932Z,28.00
2023-02-09T08:31:23.148Z,31.33
2023-02-09T08:33:54.280Z,31.17
2023-02-09T08:36:22.691Z,27.75
2023-02-09T08:38:50.860Z,26.55
2023-02-09T08:41:19.663Z,29.35
2023-02-09T08:43:51.572Z,26.70
2023-02-09T08:46:20.366Z,33.25
2023-02-09T08:48:48.791Z,31.38
2023-02-09T08:51:18.224Z,34.03
2023-02-09T08:53:54.470Z,32.03
2023-02-09T08:56:23.257Z,32.13
2023-02-09T08:58:51.363Z,28.85
2023-02-09T09:01:19.676Z,32.33
2023-02-09T09:03:47.736Z,32.00
2023-02-09T09:06:16.142Z,26.58
2023-02-09T09:08:45.677Z,28.90
2023-02-09T09:11:14.664Z,32.53
2023-02-09T09:13:43.232Z,31.48
2023-02-09T09:16:16.123Z,29.77
2023-02-09T09:18:45.357Z,33.25
2023-02-09T09:21:13.640Z,24.63
2023-02-09T09:23:41.714Z,28.77
2023-02-09T09:26:11.358Z,27.90
2023-02-09T09:28:39.420Z,42.70
2023-02-09T09:31:12.407Z,36.00
2023-02-09T09:33:40.739Z,25.45
2023-02-09T09:36:09.907Z,26.75
2023-02-09T09:38:39.131Z,28.73
2023-02-09T09:41:17.765Z,29.23
2023-02-09T09:43:47.632Z,32.33
2023-02-09T09:46:19.944Z,26.98
2023-02-09T09:48:51.575Z,29.80
2023-02-09T09:51:24.777Z,30.55
2023-02-09T09:53:56.225Z,30.70
2023-02-09T09:56:26.888Z,27.08
2023-02-09T09:58:56.558Z,30.77
2023-02-09T10:01:28.524Z,26.27
2023-02-09T10:03:59.549Z,30.30
2023-02-09T10:06:33.726Z,29.13
2023-02-09T10:09:05.884Z,25.95
2023-02-09T10:11:37.471Z,26.13
2023-02-09T10:14:06.864Z,26.77
2023-02-09T10:16:38.268Z,24.25
2023-02-09T10:19:17.513Z,27.00
2023-02-09T10:21:45.748Z,32.72
2023-02-09T10:24:16.323Z,27.50
2023-02-09T10:26:44.513Z,27.92
2023-02-09T10:29:26.284Z,25.88
2023-02-09T10:32:04.310Z,24.67
2023-02-09T10:34:41.910Z,21.88
2023-02-09T10:37:21.340Z,25.20
2023-02-09T10:39:57.173Z,25.33
2023-02-09T10:42:29.303Z,25.90
2023-02-09T10:45:05.480Z,25.85
2023-02-09T10:47:33.573Z,25.67
2023-02-09T10:50:03.319Z,28.58
2023-02-09T10:52:36.605Z,22.17
2023-02-09T10:55:07.798Z,24.88
2023-02-09T10:57:38.479Z,24.63
2023-02-09T11:00:34.809Z,25.83
2023-02-09T11:05:35.057Z,26.10
2023-02-09T11:08:13.497Z,24.65
2023-02-09T11:10:46.200Z,27.17
2023-02-09T11:13:22.285Z,27.17
2023-02-09T11:16:26.723Z,23.42
2023-02-09T11:19:01.959Z,21.13
2023-02-09T11:21:56.989Z,26.60
2023-02-09T11:24:57.278Z,20.92
2023-02-09T11:27:47.382Z,23.98
2023-02-09T11:30:45.847Z,27.20
2023-02-09T11:33:24.030Z,24.15
2023-02-09T11:36:02.389Z,24.52
2023-02-09T11:38:39.192Z,23.88
2023-02-09T11:41:26.814Z,26.20
2023-02-09T11:43:57.245Z,24.70
2023-02-09T11:46:26.432Z,22.73
2023-02-09T11:49:01.387Z,23.25
2023-02-09T11:51:31.780Z,25.05
2023-02-09T11:54:04.596Z,25.88
2023-02-09T11:56:39.513Z,23.67
2023-02-09T11:59:17.583Z,21.02
2023-02-09T12:01:50.164Z,21.10
2023-02-09T12:04:25.926Z,22.88
2023-02-09T12:06:57.386Z,27.08
2023-02-09T12:09:40.038Z,25.85
2023-02-09T12:12:16.513Z,21.55
2023-02-09T12:15:02.722Z,23.10
2023-02-09T12:17:40.839Z,19.80
2023-02-09T12:20:26.063Z,25.80
2023-02-09T12:23:07.692Z,28.52
2023-02-09T12:26:00.706Z,22.35
2023-02-09T12:28:45.291Z,21.83
2023-02-09T12:31:20.100Z,21.85
2023-02-09T12:34:14.123Z,25.25
2023-02-09T12:37:30.086Z,21.30
2023-02-09T12:40:37.848Z,34.22
2023-02-09T12:43:29.893Z,22.88
2023-02-09T12:46:26.627Z,22.60
2023-02-09T12:49:10.140Z,25.70
2023-02-09T12:51:46.831Z,23.77
2023-02-09T12:54:39.013Z,26.92
2023-02-09T12:57:48.406Z,27.60
2023-02-09T13:00:42.821Z,24.17
2023-02-09T13:03:19.025Z,26.45
2023-02-09T13:05:48.758Z,22.95
2023-02-09T13:08:35.179Z,23.40
2023-02-09T13:11:07.165Z,23.83
2023-02-09T13:13:50.011Z,30.80
2023-02-09T13:17:18.841Z,25.90
2023-02-09T13:20:28.461Z,23.80
2023-02-09T13:23:14.172Z,25.40
2023-02-09T13:25:44.269Z,27.15
2023-02-09T13:28:17.192Z,27.10
2023-02-09T13:30:47.797Z,24.15
2023-02-09T13:33:45.321Z,24.27
2023-02-09T13:36:30.391Z,29.77
2023-02-09T13:38:59.415Z,21.13
2023-02-09T13:41:35.628Z,24.33
2023-02-09T13:44:04.060Z,27.38
2023-02-09T13:46:35.391Z,22.42
2023-02-09T13:49:14.166Z,28.05
2023-02-09T13:51:42.192Z,24.80
2023-02-09T13:54:20.551Z,27.65
2023-02-09T13:56:49.110Z,26.55
2023-02-09T13:59:17.718Z,21.10
2023-02-09T14:01:47.312Z,25.08
2023-02-09T14:04:18.301Z,24.45
2023-02-09T14:06:50.775Z,24.48
2023-02-09T14:09:23.636Z,25.90
2023-02-09T14:11:54.641Z,21.67
2023-02-09T14:14:25.568Z,25.55
2023-02-09T14:17:24.533Z,25.35
2023-02-09T14:19:53.600Z,22.98
2023-02-09T14:22:33.514Z,25.63
2023-02-09T14:25:01.955Z,31.15
2023-02-09T14:27:33.111Z,25.52
2023-02-09T14:30:01.718Z,25.10
2023-02-09T14:32:35.172Z,27.75
2023-02-09T14:35:16.195Z,22.67
2023-02-09T14:37:45.814Z,25.67
2023-02-09T14:40:25.664Z,21.83
2023-02-09T14:42:59.114Z,20.38
2023-02-09T14:45:43.318Z,32.00
2023-02-09T14:48:20.692Z,24.33
2023-02-09T14:50:49.647Z,27.67
2023-02-09T14:53:18.962Z,25.75
2023-02-09T14:55:47.380Z,24.60
2023-02-09T14:58:21.848Z,25.15
2023-02-09T15:00:50.300Z,27.60
2023-02-09T15:03:19.913Z,23.58
2023-02-09T15:05:48.909Z,25.35
2023-02-09T15:08:20.066Z,26.95
2023-02-09T15:10:51.015Z,27.15
2023-02-09T15:13:19.071Z,27.33
2023-02-09T15:15:47.553Z,27.20
2023-02-09T15:18:21.731Z,22.30
2023-02-09T15:20:50.272Z,25.65
2023-02-09T15:23:19.785Z,25.77
2023-02-09T15:25:48.479Z,30.67
2023-02-09T15:28:27.979Z,26.40
2023-02-09T15:30:57.101Z,24.40
2023-02-09T15:33:28.624Z,21.48
2023-02-09T15:35:59.489Z,27.92
2023-02-09T15:38:28.200Z,28.67
2023-02-09T15:41:13.927Z,28.30
2023-02-09T15:43:59.723Z,27.17
2023-02-09T15:46:45.201Z,26.30
2023-02-09T15:49:14.758Z,25.67
2023-02-09T15:51:43.021Z,26.17
2023-02-09T15:54:16.177Z,37.28
2023-02-09T15:56:44.391Z,34.25
2023-02-09T15:59:19.219Z,32.47
2023-02-09T16:01:47.523Z,25.27
2023-02-09T16:04:17.004Z,28.73
2023-02-09T16:06:47.487Z,24.17
2023-02-09T16:09:19.885Z,29.83
2023-02-09T16:11:48.509Z,31.92
2023-02-09T16:14:20.307Z,45.15
2023-02-09T16:16:48.967Z,33.08
2023-02-09T16:19:18.916Z,28.25
2023-02-09T16:21:50.595Z,24.20
2023-02-09T16:24:23.732Z,26.27
2023-02-09T16:26:51.892Z,25.65
2023-02-09T16:29:19.935Z,26.95
2023-02-09T16:31:48.647Z,29.00
2023-02-09T16:34:18.147Z,24.30
2023-02-09T16:36:48.550Z,27.50
2023-02-09T16:39:22.298Z,33.97
2023-02-09T16:41:53.604Z,29.98
2023-02-09T16:44:23.531Z,31.30
2023-02-09T16:46:54.084Z,29.05
2023-02-09T16:49:35.118Z,28.65
2023-02-09T16:52:07.985Z,27.08
2023-02-09T16:54:44.592Z,32.13
2023-02-09T16:57:19.212Z,27.60
2023-02-09T16:59:47.827Z,29.65
2023-02-09T17:02:35.242Z,27.77
2023-02-09T17:05:16.225Z,29.60
2023-02-09T17:07:54.082Z,46.10
2023-02-09T17:10:26.067Z,59.30
2023-02-09T17:12:54.189Z,43.83
2023-02-09T17:15:30.736Z,33.70
2023-02-09T17:18:02.769Z,32.90
2023-02-09T17:20:37.195Z,36.65
2023-02-09T17:23:05.784Z,30.67
2023-02-09T17:25:38.947Z,33.03
2023-02-09T17:28:07.026Z,28.80
2023-02-09T17:30:35.809Z,32.97
2023-02-09T17:33:06.873Z,37.88
2023-02-09T17:36:17.461Z,31.95
2023-02-09T17:38:30.209Z,34.78
2023-02-09T17:41:00.436Z,30.13
2023-02-09T17:43:28.761Z,31.08
2023-02-09T17:45:57.334Z,50.58
2023-02-09T17:48:25.760Z,33.60
2023-02-09T17:50:57.997Z,34.25
2023-02-09T17:53:27.965Z,28.75
2023-02-09T17:55:57.138Z,29.70
2023-02-09T17:58:26.122Z,31.83
2023-02-09T18:00:55.996Z,30.33
2023-02-09T18:03:26.289Z,29.13
2023-02-09T18:05:58.523Z,35.67
2023-02-09T18:08:27.401Z,29.45
2023-02-09T18:10:58.580Z,34.40
2023-02-09T18:13:27.061Z,32.55
2023-02-09T18:15:55.272Z,36.67
2023-02-09T18:18:24.452Z,32.58
2023-02-09T18:20:52.809Z,32.22
2023-02-09T18:23:23.497Z,30.10
2023-02-09T18:25:51.889Z,37.03
2023-02-09T18:28:20.127Z,34.25
2023-02-09T18:30:48.301Z,29.70
2023-02-09T18:33:17.172Z,29.92
2023-02-09T18:35:45.911Z,33.05
2023-02-09T18:38:15.813Z,33.15
2023-02-09T18:40:45.363Z,31.75
2023-02-09T18:43:15.742Z,37.15
2023-02-09T18:45:44.380Z,32.03
2023-02-09T18:48:13.018Z,29.25
2023-02-09T18:50:41.219Z,31.48
2023-02-09T18:53:11.077Z,28.85
2023-02-09T18:55:39.643Z,32.28
2023-02-09T18:58:10.242Z,31.73
2023-02-09T19:00:38.468Z,36.33
2023-02-09T19:03:06.767Z,34.35
2023-02-09T19:05:34.929Z,30.75
2023-02-09T19:08:03.098Z,35.78
2023-02-09T19:10:33.156Z,34.97
2023-02-09T19:13:03.215Z,32.78
2023-02-09T19:15:34.078Z,32.35
2023-02-09T19:18:04.078Z,34.95
2023-02-09T19:20:33.976Z,34.70
2023-02-09T19:23:03.773Z,30.08
2023-02-09T19:25:33.204Z,36.40
2023-02-09T19:28:01.748Z,35.20
2023-02-09T19:30:29.803Z,32.67
2023-02-09T19:33:00.160Z,30.77
2023-02-09T19:35:29.335Z,32.33
2023-02-09T19:37:59.241Z,32.38
2023-02-09T19:40:35.665Z,28.88
2023-02-09T19:43:04.231Z,30.88
2023-02-09T19:45:36.485Z,37.53
2023-02-09T19:48:07.504Z,34.15
2023-02-09T19:50:36.751Z,36.25
2023-02-09T19:53:05.753Z,33.30
2023-02-09T19:55:34.275Z,31.17
2023-02-09T19:58:02.457Z,32.53
2023-02-09T20:00:31.097Z,31.45
2023-02-09T20:02:59.294Z,32.50
2023-02-09T20:05:28.877Z,36.47
2023-02-09T20:07:57.130Z,34.85
2023-02-09T20:10:25.380Z,35.63
2023-02-09T20:12:53.477Z,31.67
2023-02-09T20:15:21.538Z,33.85
2023-02-09T20:17:49.711Z,34.50
2023-02-09T20:20:17.970Z,34.38
2023-02-09T20:22:54.715Z,39.53
2023-02-09T20:25:22.861Z,33.13
2023-02-09T20:27:51.055Z,38.30
2023-02-09T20:30:19.485Z,33.72
2023-02-09T20:32:47.697Z,38.33
2023-02-09T20:35:15.926Z,36.88
2023-02-09T20:37:44.204Z,44.30
2023-02-09T20:40:14.222Z,32.72
2023-02-09T20:43:00.005Z,40.95
2023-02-09T20:45:45.546Z,42.83
2023-02-09T20:48:13.772Z,51.47
2023-02-09T20:50:41.839Z,48.08
2023-02-09T20:53:09.879Z,53.13
2023-02-09T20:55:39.461Z,45.03
2023-02-09T20:58:08.605Z,47.40
2023-02-09T21:00:36.668Z,37.15
2023-02-09T21:03:05.182Z,40.83
2023-02-09T21:05:33.289Z,43.90
2023-02-09T21:08:04.279Z,39.22
2023-02-09T21:10:35.342Z,42.00
2023-02-09T21:13:05.986Z,42.53
2023-02-09T21:15:34.164Z,42.25
2023-02-09T21:18:02.472Z,44.50
2023-02-09T21:20:32.136Z,47.70
2023-02-09T21:23:00.272Z,48.72
2023-02-09T21:25:28.672Z,46.35
2023-02-09T21:27:59.339Z,45.78
2023-02-09T21:30:29.452Z,48.90
2023-02-09T21:33:00.390Z,51.25
2023-02-09T21:35:28.569Z,46.03
2023-02-09T21:37:56.685Z,53.28
2023-02-09T21:40:24.923Z,56.65
2023-02-09T21:42:53.243Z,49.33
2023-02-09T21:45:21.337Z,47.58
2023-02-09T21:47:50.726Z,55.22
2023-02-09T21:50:21.127Z,48.00
2023-02-09T21:52:50.006Z,52.15
2023-02-09T21:55:18.351Z,47.78
2023-02-09T21:57:46.529Z,54.70
2023-02-09T22:00:16.157Z,49.67
2023-02-09T22:02:44.879Z,49.20
2023-02-09T22:05:14.804Z,52.22
2023-02-09T22:07:45.589Z,54.95
2023-02-09T22:10:13.892Z,50.95
2023-02-09T22:12:41.890Z,54.35
2023-02-09T22:15:10.963Z,57.05
2023-02-09T22:17:39.247Z,55.13
2023-02-09T22:20:09.408Z,58.08
2023-02-09T22:22:39.885Z,54.95
2023-02-09T22:25:09.049Z,54.58
2023-02-09T22:27:37.186Z,51.03
2023-02-09T22:30:05.824Z,59.40
2023-02-09T22:32:34.000Z,52.83
2023-02-09T22:35:02.289Z,51.47
2023-02-09T22:37:30.307Z,55.92
2023-02-09T22:39:59.769Z,63.75
2023-02-09T22:42:27.688Z,53.40
2023-02-09T22:44:55.856Z,61.13
2023-02-09T22:47:24.013Z,63.88
2023-02-09T22:49:52.077Z,63.38
2023-02-09T22:52:20.139Z,52.05
2023-02-09T22:54:48.305Z,55.80
2023-02-09T22:57:17.810Z,58.13
2023-02-09T22:59:45.946Z,58.95
2023-02-09T23:02:14.004Z,58.58
2023-02-09T23:04:42.194Z,56.75
2023-02-09T23:07:10.288Z,56.67
2023-02-09T23:09:38.442Z,56.85
2023-02-09T23:12:07.000Z,60.88
2023-02-09T23:14:36.463Z,56.13
2023-02-09T23:17:04.516Z,54.53
2023-02-09T23:19:32.545Z,55.47
2023-02-09T23:22:00.744Z,59.92
2023-02-09T23:24:29.386Z,58.67
2023-02-09T23:26:57.772Z,58.05
2023-02-09T23:29:25.920Z,54.00
2023-02-09T23:31:55.244Z,52.42
2023-02-09T23:34:24.219Z,56.47
2023-02-09T23:36:52.905Z,53.20
2023-02-09T23:39:23.444Z,56.40
2023-02-09T23:41:51.571Z,58.08
2023-02-09T23:44:19.903Z,62.40
2023-02-09T23:46:48.182Z,52.72
2023-02-09T23:49:17.663Z,60.80
2023-02-09T23:51:46.554Z,56.78
2023-02-09T23:54:14.604Z,53.53
2023-02-09T23:56:43.199Z,60.78
2023-02-09T23:59:15.553Z,58.80
